KHUM

Houma-Terrebonne Airport

Houma, Louisiana, USA
METAR KHUM 180815Z AUTO 18009KT 7SM CLR 19/19 A3011 RMK AO2 T01920189
Observed Flight Rules
Dec-18 @ 08:15 UTC (30 minutes ago) Visual Flight Rules
Wind Visibility Clouds
180° at 9 knots 7 miles
  • Clear skies
Temperatures Readings
Current 19°C / 66°F
Dewpoint 19°C / 66°F
Humidity 100%
Altimeter 30.11" Hg
Pressure 1020 hPa
Elevation 3
METAR KHUM 180815Z AUTO 18009KT 7SM CLR 19/19 A3011 RMK AO2 T01920189
Observed Flight Rules
Dec-18 @ 08:15 UTC
(30 minutes ago)
VFR
Wind Visibility
180° at 9 knots 7 miles
Clouds
  • Clear skies
Temperature Dewpoint
19°C / 66°F 19°C / 66°F
Humidity Altimeter Pressure
100% 30.11" Hg 1020 hPa